Time;durP1;ratioP1;P1;durP2;ratioP2;P2;SDS_P1;SDS_P2;PMS_P1;PMS_P2;Temp;Humidity;BMP_temperature;BMP_pressure;BME280_temperature;BME280_humidity;BME280_pressure;Samples;Min_cycle;Max_cycle;Signal;HPM_P1;HPM_P2
2022/09/21 00:01:22;;;;;;;10.70;5.00;;;;;;;7.72;96.95;101832.88;108079;1271;62431;-79
2022/09/21 00:04:00;;;;;;;9.60;5.00;;;;;;;7.71;97.12;101833.20;107751;1271;61750;-78
2022/09/21 00:06:30;;;;;;;9.60;4.80;;;;;;;7.70;97.34;101835.05;107867;1271;73280;-78
2022/09/21 00:08:57;;;;;;;11.20;5.10;;;;;;;7.68;97.35;101833.43;107967;1270;71124;-78
2022/09/21 00:11:27;;;;;;;9.50;5.10;;;;;;;7.67;97.07;101833.70;107966;1271;74078;-78
2022/09/21 00:14:13;;;;;;;9.30;4.70;;;;;;;7.65;97.18;101828.24;108055;1271;61759;-78
2022/09/21 00:16:42;;;;;;;8.80;4.50;;;;;;;7.65;97.11;101829.15;107704;1271;63649;-78
2022/09/21 00:19:09;;;;;;;7.80;4.20;;;;;;;7.63;96.98;101828.45;108096;1271;75268;-78
2022/09/21 00:21:37;;;;;;;9.80;4.40;;;;;;;7.61;96.63;101830.35;108061;1271;72444;-78
2022/09/21 00:24:07;;;;;;;8.50;4.60;;;;;;;7.60;96.94;101831.52;107692;1271;73846;-78
2022/09/21 00:26:36;;;;;;;8.40;4.90;;;;;;;7.58;97.01;101831.98;107291;1271;61545;-78
2022/09/21 00:29:03;;;;;;;10.50;5.00;;;;;;;7.56;97.10;101830.96;107718;1274;60281;-78
2022/09/21 00:31:30;;;;;;;11.00;4.80;;;;;;;7.56;97.38;101837.30;108195;1271;74668;-78
2022/09/21 00:33:59;;;;;;;11.30;5.40;;;;;;;7.53;97.13;101839.77;107661;1271;72655;-79
2022/09/21 00:36:27;;;;;;;7.80;5.10;;;;;;;7.52;97.19;101836.91;108074;1271;75257;-78
2022/09/21 00:39:00;;;;;;;9.50;5.00;;;;;;;7.51;97.23;101839.75;107831;1271;62456;-77
2022/09/21 00:41:29;;;;;;;9.90;5.00;;;;;;;7.49;97.26;101839.05;107784;1271;61583;-78
2022/09/21 00:44:31;;;;;;;9.50;4.70;;;;;;;7.48;97.28;101843.73;107666;1273;75977;-79
2022/09/21 00:47:10;;;;;;;12.00;5.30;;;;;;;7.45;97.16;101837.98;108194;1271;71212;-78
2022/09/21 00:49:39;;;;;;;7.90;5.20;;;;;;;7.44;97.29;101838.98;108045;1271;72721;-78
2022/09/21 00:52:07;;;;;;;12.20;4.80;;;;;;;7.42;97.24;101843.58;108066;1271;60212;-78
2022/09/21 00:54:44;;;;;;;11.00;4.80;;;;;;;7.39;97.48;101846.07;108136;1272;60555;-78
2022/09/21 00:57:11;;;;;;;10.80;5.30;;;;;;;7.38;97.55;101845.42;108035;1271;74485;-78
2022/09/21 00:59:39;;;;;;;8.90;5.00;;;;;;;7.37;97.68;101846.80;107900;1271;72007;-78
2022/09/21 01:02:07;;;;;;;9.00;5.00;;;;;;;7.34;97.62;101849.23;107903;1271;72858;-79
2022/09/21 01:04:35;;;;;;;11.90;5.50;;;;;;;7.33;97.67;101847.60;108199;1271;61487;-79
2022/09/21 01:07:05;;;;;;;10.70;5.30;;;;;;;7.32;97.95;101851.56;108013;1271;61121;-79
2022/09/21 01:09:32;;;;;;;9.00;5.10;;;;;;;7.31;97.81;101856.54;107839;1271;75879;-79
2022/09/21 01:12:21;;;;;;;10.70;5.20;;;;;;;7.30;97.90;101859.63;108131;1271;70671;-79
2022/09/21 01:15:04;;;;;;;13.20;5.20;;;;;;;7.28;98.00;101860.00;107855;1271;71997;-78
2022/09/21 01:18:00;;;;;;;8.80;4.80;;;;;;;7.28;98.08;101860.36;107686;1271;61765;-78
2022/09/21 01:21:07;;;;;;;11.00;5.30;;;;;;;7.26;98.22;101858.76;107709;1272;60713;-79
2022/09/21 01:23:39;;;;;;;9.40;4.90;;;;;;;7.23;97.93;101856.16;108022;1271;74756;-79
2022/09/21 01:26:30;;;;;;;11.20;5.50;;;;;;;7.21;97.95;101858.39;107826;1271;72463;-78
2022/09/21 01:29:12;;;;;;;11.80;5.10;;;;;;;7.20;98.22;101858.65;108120;1271;71869;-78
2022/09/21 01:31:49;;;;;;;9.50;5.30;;;;;;;7.19;98.15;101860.02;108191;1271;62238;-77
2022/09/21 01:34:42;;;;;;;9.40;5.30;;;;;;;7.17;98.30;101860.31;107936;1271;60726;-79
2022/09/21 01:37:14;;;;;;;11.40;5.50;;;;;;;7.15;98.20;101863.00;108043;1271;75602;-79
2022/09/21 01:39:45;;;;;;;11.20;5.40;;;;;;;7.13;98.23;101863.65;107967;1271;72719;-79
2022/09/21 01:42:14;;;;;;;11.80;5.70;;;;;;;7.12;98.62;101860.77;107996;1273;74011;-79
2022/09/21 01:44:44;;;;;;;11.30;5.80;;;;;;;7.11;98.41;101865.05;107896;1271;61206;-79
2022/09/21 01:47:13;;;;;;;9.70;5.40;;;;;;;7.10;98.39;101866.17;108104;1271;60458;-78
2022/09/21 01:49:49;;;;;;;12.30;6.10;;;;;;;7.09;98.60;101870.14;107796;1271;74188;-79
2022/09/21 01:52:22;;;;;;;11.20;6.30;;;;;;;7.07;98.83;101868.70;107922;1271;72782;-78
2022/09/21 01:54:53;;;;;;;10.10;6.10;;;;;;;7.06;98.71;101871.27;107737;1271;74317;-78
2022/09/21 01:57:30;;;;;;;11.70;6.50;;;;;;;7.03;98.87;101870.39;107949;1271;62436;-78
2022/09/21 01:59:59;;;;;;;12.80;6.20;;;;;;;7.02;98.96;101868.08;107784;1271;61965;-79
2022/09/21 02:02:41;;;;;;;10.70;6.60;;;;;;;7.02;99.03;101870.71;108155;1272;74172;-79
2022/09/21 02:05:09;;;;;;;8.90;6.20;;;;;;;7.01;98.83;101870.09;108390;1271;71500;-79
2022/09/21 02:07:38;;;;;;;11.70;6.30;;;;;;;7.00;99.04;101872.79;108108;1271;73031;-80
2022/09/21 02:10:09;;;;;;;11.30;6.00;;;;;;;6.98;98.82;101869.73;107698;1271;61483;-80
2022/09/21 02:12:37;;;;;;;10.90;6.30;;;;;;;6.98;98.96;101872.62;107938;1271;59359;-79
2022/09/21 02:15:04;;;;;;;13.00;6.60;;;;;;;6.97;98.91;101876.38;108174;1271;74977;-79
2022/09/21 02:17:33;;;;;;;10.00;6.20;;;;;;;6.96;98.97;101877.70;107774;1271;70501;-78
2022/09/21 02:20:29;;;;;;;12.10;6.20;;;;;;;6.96;98.93;101879.29;107995;1271;72758;-79
2022/09/21 02:23:23;;;;;;;13.30;6.70;;;;;;;6.95;99.17;101873.00;108165;1271;61505;-78
2022/09/21 02:25:58;;;;;;;10.00;6.70;;;;;;;6.93;98.93;101870.13;107962;1271;61885;-78
2022/09/21 02:28:47;;;;;;;12.50;6.90;;;;;;;6.92;98.84;101873.05;107788;1271;75853;-78
2022/09/21 02:31:30;;;;;;;13.70;6.80;;;;;;;6.90;98.91;101872.14;108208;1271;70132;-78
2022/09/21 02:34:22;;;;;;;11.10;6.80;;;;;;;6.89;99.06;101872.74;108278;1271;74117;-78
2022/09/21 02:36:55;;;;;;;12.50;6.90;;;;;;;6.89;99.11;101872.77;108192;1271;62633;-78
2022/09/21 02:39:39;;;;;;;12.20;7.00;;;;;;;6.87;99.31;101870.61;108280;1271;60337;-78
2022/09/21 02:42:11;;;;;;;12.30;6.80;;;;;;;6.86;99.42;101873.20;108047;1271;74305;-79
2022/09/21 02:45:10;;;;;;;11.80;7.30;;;;;;;6.85;99.52;101871.89;107638;1272;71306;-78
2022/09/21 02:47:59;;;;;;;11.90;6.90;;;;;;;6.84;99.62;101869.30;107650;1271;72911;-79
2022/09/21 02:50:35;;;;;;;14.30;7.80;;;;;;;6.84;99.59;101870.70;108005;1271;60991;-78
2022/09/21 02:53:06;;;;;;;14.20;8.20;;;;;;;6.84;99.39;101872.50;108082;1271;61279;-78
2022/09/21 02:55:33;;;;;;;13.70;8.30;;;;;;;6.82;99.56;101872.97;107959;1271;76021;-78
2022/09/21 02:58:05;;;;;;;12.20;7.90;;;;;;;6.80;99.50;101870.70;108101;1271;71713;-78
2022/09/21 03:00:34;;;;;;;16.50;8.90;;;;;;;6.78;99.42;101869.64;107972;1271;74727;-78
2022/09/21 03:03:19;;;;;;;16.60;9.00;;;;;;;6.76;99.57;101871.52;108004;1271;62541;-78
2022/09/21 03:05:49;;;;;;;17.70;9.00;;;;;;;6.77;99.94;101867.61;107689;1271;61782;-78
2022/09/21 03:08:16;;;;;;;17.90;9.20;;;;;;;6.77;100.00;101871.66;108093;1271;75000;-78
2022/09/21 03:10:45;;;;;;;16.10;9.30;;;;;;;6.77;99.97;101872.66;108045;1271;71139;-78
2022/09/21 03:13:12;;;;;;;15.60;9.60;;;;;;;6.78;99.98;101874.73;107895;1271;72687;-78
2022/09/21 03:15:44;;;;;;;14.10;9.00;;;;;;;6.78;99.95;101875.04;107942;1271;61445;-79
2022/09/21 03:18:11;;;;;;;14.70;8.50;;;;;;;6.79;100.00;101875.52;107844;1271;60572;-78
2022/09/21 03:20:44;;;;;;;14.00;8.10;;;;;;;6.79;99.94;101881.29;107673;1271;76891;-78
2022/09/21 03:23:11;;;;;;;14.80;9.10;;;;;;;6.78;99.79;101884.50;108017;1271;71070;-78
2022/09/21 03:25:45;;;;;;;18.10;9.20;;;;;;;6.78;99.81;101887.01;107718;1271;74024;-79
2022/09/21 03:28:12;;;;;;;14.90;9.20;;;;;;;6.77;99.96;101883.77;108329;1271;62872;-77
2022/09/21 03:30:40;;;;;;;14.10;8.70;;;;;;;6.78;99.92;101886.31;107866;1271;61468;-78
2022/09/21 03:33:07;;;;;;;15.00;8.90;;;;;;;6.77;99.87;101885.19;107686;1271;75998;-79
2022/09/21 03:35:34;;;;;;;14.30;8.90;;;;;;;6.75;99.76;101884.58;108175;1271;70267;-78
2022/09/21 03:38:01;;;;;;;13.30;8.90;;;;;;;6.74;99.74;101884.34;108078;1271;73036;-79
2022/09/21 03:40:28;;;;;;;14.50;8.90;;;;;;;6.72;99.76;101887.62;108197;1271;60571;-78
2022/09/21 03:42:54;;;;;;;16.50;9.00;;;;;;;6.70;99.57;101887.96;107931;1271;60823;-78
2022/09/21 03:45:21;;;;;;;15.10;9.00;;;;;;;6.68;99.65;101891.98;107910;1271;74911;-78
2022/09/21 03:47:48;;;;;;;16.40;9.60;;;;;;;6.66;99.54;101892.02;108156;1271;71659;-78
2022/09/21 03:50:15;;;;;;;17.10;9.10;;;;;;;6.64;99.62;101894.63;107989;1270;72567;-77
2022/09/21 03:52:42;;;;;;;15.50;9.20;;;;;;;6.61;99.84;101899.95;108081;1271;61242;-77
2022/09/21 03:55:09;;;;;;;13.30;9.30;;;;;;;6.60;99.88;101897.92;108295;1271;59194;-77
2022/09/21 03:57:37;;;;;;;15.30;8.20;;;;;;;6.59;99.87;101900.27;107908;1271;74694;-77
2022/09/21 04:00:07;;;;;;;13.60;8.20;;;;;;;6.58;99.70;101901.58;107932;1271;73364;-78
2022/09/21 04:02:35;;;;;;;30.90;8.60;;;;;;;6.56;99.41;101899.46;107678;1271;72721;-79
2022/09/21 04:05:03;;;;;;;21.30;8.50;;;;;;;6.52;99.30;101899.36;107809;1271;60406;-78
2022/09/21 04:07:33;;;;;;;13.10;7.80;;;;;;;6.49;99.24;101901.02;108095;1271;61245;-78
2022/09/21 04:10:04;;;;;;;12.50;7.90;;;;;;;6.46;99.17;101898.66;107877;1271;75347;-78
2022/09/21 04:12:33;;;;;;;11.10;7.90;;;;;;;6.41;99.02;101900.75;108069;1271;71493;-78
2022/09/21 04:15:00;;;;;;;12.90;7.10;;;;;;;6.36;98.75;101899.93;107995;1271;72637;-78
2022/09/21 04:17:28;;;;;;;14.60;7.70;;;;;;;6.32;98.83;101902.87;107776;1271;62218;-78
2022/09/21 04:19:54;;;;;;;9.20;6.80;;;;;;;6.29;98.81;101904.33;107967;1271;61142;-77
2022/09/21 04:22:23;;;;;;;12.30;7.50;;;;;;;6.25;98.66;101899.38;107990;1270;74585;-78
2022/09/21 04:24:51;;;;;;;13.30;7.60;;;;;;;6.19;98.29;101900.90;107761;1271;72292;-78
2022/09/21 04:27:18;;;;;;;10.70;7.60;;;;;;;6.14;98.55;101901.02;107548;1272;74342;-77
2022/09/21 04:29:45;;;;;;;12.70;7.90;;;;;;;6.13;98.89;101906.09;107809;1271;61406;-78
2022/09/21 04:32:12;;;;;;;13.10;7.50;;;;;;;6.11;99.10;101905.00;108060;1270;60316;-78
2022/09/21 04:34:39;;;;;;;11.20;7.10;;;;;;;6.09;99.12;101903.56;108311;1271;74683;-81
2022/09/21 04:37:07;;;;;;;12.60;7.70;;;;;;;6.08;99.00;101904.69;108007;1271;71845;-81
2022/09/21 04:39:34;;;;;;;11.00;7.60;;;;;;;6.09;99.46;101904.59;107999;1271;72931;-80
2022/09/21 04:42:01;;;;;;;12.70;7.80;;;;;;;6.10;99.40;101902.24;108041;1271;61312;-81
2022/09/21 04:44:29;;;;;;;9.50;6.80;;;;;;;6.11;99.47;101905.65;108200;1271;62222;-82
2022/09/21 04:46:56;;;;;;;10.40;7.60;;;;;;;6.12;99.42;101904.01;107926;1271;76281;-81
2022/09/21 04:49:23;;;;;;;12.00;7.70;;;;;;;6.12;98.88;101906.68;108077;1271;71523;-80
2022/09/21 04:51:50;;;;;;;11.50;7.40;;;;;;;6.09;98.80;101910.05;108124;1271;72846;-80
2022/09/21 04:54:17;;;;;;;15.30;8.80;;;;;;;6.07;98.88;101905.66;108187;1271;61404;-80
2022/09/21 04:56:44;;;;;;;14.80;7.70;;;;;;;6.07;98.99;101911.60;108075;1271;62113;-80
2022/09/21 04:59:11;;;;;;;14.30;7.90;;;;;;;6.06;98.92;101907.63;108164;1271;76623;-80
2022/09/21 05:01:38;;;;;;;13.20;8.20;;;;;;;6.07;99.06;101908.96;107967;1271;70722;-80
2022/09/21 05:04:05;;;;;;;17.20;9.00;;;;;;;6.07;98.93;101914.20;108019;1271;73947;-80
2022/09/21 05:06:33;;;;;;;13.30;7.70;;;;;;;6.08;99.03;101913.50;108001;1271;61282;-81
2022/09/21 05:11:45;;;;;;;15.00;7.60;;;;;;;6.06;98.74;101921.66;108220;1270;75213;-81
2022/09/21 05:14:12;;;;;;;14.60;8.30;;;;;;;6.05;98.60;101919.29;107692;1271;71341;-80
2022/09/21 05:16:39;;;;;;;14.20;8.80;;;;;;;6.04;98.53;101920.40;108197;1271;73025;-80
2022/09/21 05:19:06;;;;;;;9.50;6.70;;;;;;;6.04;98.41;101919.40;107891;1271;63517;-80
2022/09/21 05:21:35;;;;;;;11.10;7.00;;;;;;;6.01;98.00;101918.02;108189;1271;60202;-81
2022/09/21 05:24:02;;;;;;;9.80;7.00;;;;;;;6.00;97.97;101922.14;108211;1271;74837;-80
2022/09/21 05:26:29;;;;;;;13.10;7.50;;;;;;;6.01;98.27;101924.15;108367;1271;71880;-80
2022/09/21 05:28:56;;;;;;;9.80;7.00;;;;;;;6.01;98.10;101924.48;108227;1271;72954;-80
2022/09/21 05:31:30;;;;;;;12.00;7.30;;;;;;;6.00;98.07;101926.53;108298;1271;62191;-80
2022/09/21 05:34:34;;;;;;;16.00;9.20;;;;;;;6.01;97.96;101928.61;108319;1271;60249;-80
2022/09/21 05:37:10;;;;;;;14.40;10.00;;;;;;;6.03;98.50;101927.89;108147;1271;76033;-80
2022/09/21 05:39:38;;;;;;;13.80;8.00;;;;;;;6.05;98.79;101934.37;108162;1271;72128;-81
2022/09/21 05:42:05;;;;;;;12.30;7.30;;;;;;;6.08;98.92;101934.00;108320;1271;73059;-80
2022/09/21 05:44:33;;;;;;;14.90;7.70;;;;;;;6.12;98.89;101938.63;108222;1271;61350;-80
2022/09/21 05:47:32;;;;;;;13.20;7.40;;;;;;;6.18;99.20;101938.20;108291;1271;61700;-80
2022/09/21 05:50:16;;;;;;;12.40;8.00;;;;;;;6.29;99.28;101943.34;108503;1271;75996;-80
2022/09/21 05:53:24;;;;;;;12.90;7.50;;;;;;;6.38;99.37;101943.70;108545;1271;72120;-80
2022/09/21 05:55:55;;;;;;;11.40;7.30;;;;;;;6.50;99.36;101949.65;108572;1271;71841;-80
2022/09/21 05:58:35;;;;;;;12.50;7.20;;;;;;;6.58;99.27;101946.06;108372;1271;62403;-80
2022/09/21 06:01:26;;;;;;;13.30;7.10;;;;;;;6.66;99.03;101950.52;108287;1271;61562;-80
2022/09/21 06:03:55;;;;;;;11.60;7.40;;;;;;;6.70;98.68;101946.34;107943;1271;77464;-80
2022/09/21 06:06:22;;;;;;;12.70;7.40;;;;;;;6.73;98.68;101952.94;107853;1271;71299;-79
2022/09/21 06:08:49;;;;;;;14.90;7.60;;;;;;;6.77;98.52;101957.04;108106;1271;74108;-79
2022/09/21 06:11:16;;;;;;;12.10;7.50;;;;;;;6.82;98.88;101961.45;107662;1270;61135;-79
2022/09/21 06:13:43;;;;;;;15.00;7.40;;;;;;;6.87;98.91;101965.79;108368;1270;61589;-80
2022/09/21 06:16:10;;;;;;;15.30;8.00;;;;;;;6.93;99.02;101967.56;107624;1271;76179;-80
2022/09/21 06:18:38;;;;;;;16.60;8.80;;;;;;;7.01;99.25;101972.94;107796;1271;72573;-79
2022/09/21 06:21:08;;;;;;;10.50;7.70;;;;;;;7.11;99.55;101979.06;107948;1271;73668;-80
2022/09/21 06:23:35;;;;;;;13.60;8.30;;;;;;;7.19;99.47;101979.33;107910;1271;62530;-80
2022/09/21 06:26:03;;;;;;;13.20;8.50;;;;;;;7.25;98.92;101979.69;107846;1271;61130;-80
2022/09/21 06:28:29;;;;;;;17.50;11.30;;;;;;;7.34;99.12;101986.20;108254;1271;74691;-79
2022/09/21 06:30:57;;;;;;;14.60;8.80;;;;;;;7.44;99.21;101985.23;108114;1271;72608;-80
2022/09/21 06:33:24;;;;;;;15.30;8.70;;;;;;;7.55;99.07;101987.02;107589;1271;74321;-79
2022/09/21 06:35:56;;;;;;;13.00;8.20;;;;;;;7.65;98.95;101981.08;107555;1271;61444;-79
2022/09/21 06:38:24;;;;;;;13.00;8.10;;;;;;;7.74;98.81;101977.88;108158;1271;60564;-80
2022/09/21 06:40:51;;;;;;;14.60;8.90;;;;;;;7.83;98.63;101977.52;108011;1271;74921;-79
2022/09/21 06:43:18;;;;;;;15.70;9.30;;;;;;;7.93;98.92;101978.47;107729;1271;71231;-80
2022/09/21 06:45:52;;;;;;;16.80;8.60;;;;;;;8.02;98.65;101979.77;107987;1271;73908;-79
2022/09/21 06:48:20;;;;;;;20.60;11.50;;;;;;;8.14;98.90;101981.10;108178;1270;62194;-79
2022/09/21 06:50:47;;;;;;;17.20;11.00;;;;;;;8.27;98.50;101978.48;107559;1271;61911;-79
2022/09/21 06:53:14;;;;;;;17.10;10.00;;;;;;;8.39;99.02;101978.13;108059;1271;75059;-79
2022/09/21 06:55:41;;;;;;;25.80;15.30;;;;;;;8.56;99.10;101979.63;108039;1271;72720;-79
2022/09/21 06:58:08;;;;;;;14.90;9.00;;;;;;;8.71;98.54;101984.31;107681;1271;72756;-79
2022/09/21 07:00:35;;;;;;;17.60;9.70;;;;;;;8.82;97.84;101984.65;108335;1271;60198;-79
2022/09/21 07:03:01;;;;;;;16.30;9.30;;;;;;;8.94;97.79;101983.06;108009;1271;59189;-79
2022/09/21 07:05:28;;;;;;;15.30;10.00;;;;;;;9.08;97.97;101984.52;107959;1271;74841;-79
2022/09/21 07:07:57;;;;;;;14.10;8.80;;;;;;;9.19;97.56;101984.72;107781;1271;72373;-80
2022/09/21 07:10:24;;;;;;;12.70;9.00;;;;;;;9.28;96.81;101984.34;107979;1271;72942;-79
2022/09/21 07:12:51;;;;;;;11.20;8.50;;;;;;;9.35;96.15;101983.55;107985;1271;61620;-79
2022/09/21 07:15:18;;;;;;;12.60;9.20;;;;;;;9.41;95.74;101982.27;107958;1271;61936;-78
2022/09/21 07:17:45;;;;;;;13.90;9.20;;;;;;;9.52;96.14;101983.23;107670;1270;75067;-79
2022/09/21 07:20:18;;;;;;;11.60;8.20;;;;;;;9.65;95.55;101979.98;108160;1271;71782;-79
2022/09/21 07:22:45;;;;;;;12.20;8.70;;;;;;;9.75;95.40;101983.13;107608;1271;71952;-79
2022/09/21 07:25:12;;;;;;;12.80;8.30;;;;;;;9.85;94.91;101987.54;107721;1271;63208;-79
2022/09/21 07:27:38;;;;;;;14.80;9.20;;;;;;;9.94;94.24;101987.80;107483;1271;61186;-80
2022/09/21 07:30:06;;;;;;;12.10;9.00;;;;;;;10.07;94.36;101983.46;107566;1271;76262;-79
2022/09/21 07:32:35;;;;;;;16.80;9.60;;;;;;;10.23;94.38;101988.57;108361;1271;71214;-79
2022/09/21 07:35:02;;;;;;;13.60;8.60;;;;;;;10.39;94.29;101984.02;107595;1271;72992;-79
2022/09/21 07:37:30;;;;;;;12.20;8.00;;;;;;;10.52;92.64;101989.79;108198;1271;62103;-79
2022/09/21 07:39:57;;;;;;;12.30;8.60;;;;;;;10.60;91.75;101989.72;108157;1271;61274;-79
2022/09/21 07:42:26;;;;;;;14.20;8.80;;;;;;;10.74;92.34;101988.27;107856;1271;74795;-79
2022/09/21 07:44:53;;;;;;;13.60;8.20;;;;;;;10.87;91.75;101990.04;108114;1271;71934;-79
2022/09/21 07:47:30;;;;;;;15.40;9.60;;;;;;;11.01;91.23;101992.61;107649;1271;72951;-79
2022/09/21 07:49:57;;;;;;;13.10;7.70;;;;;;;11.12;90.15;101990.83;107952;1271;64824;-79
2022/09/21 07:52:23;;;;;;;12.00;8.20;;;;;;;11.23;89.82;101988.04;107798;1271;60234;-80
2022/09/21 07:54:50;;;;;;;12.10;6.10;;;;;;;11.38;89.72;101995.11;108191;1271;74873;-79
2022/09/21 08:00:04;;;;;;;9.80;6.30;;;;;;;11.59;87.15;101998.75;108220;1271;72370;-80
2022/09/21 08:02:31;;;;;;;13.20;6.80;;;;;;;11.69;86.32;101997.92;107717;1271;62033;-79
2022/09/21 08:04:58;;;;;;;12.00;6.80;;;;;;;11.81;86.83;101991.56;107709;1271;60075;-79
2022/09/21 08:07:27;;;;;;;13.10;6.80;;;;;;;11.95;85.74;101997.17;107774;1274;74927;-79
2022/09/21 08:09:54;;;;;;;12.30;6.40;;;;;;;12.04;84.70;101996.99;107874;1271;71175;-79
2022/09/21 08:12:21;;;;;;;11.70;6.60;;;;;;;12.15;84.61;101999.21;107738;1271;72774;-79
2022/09/21 08:14:48;;;;;;;16.30;9.80;;;;;;;12.27;84.28;101998.27;107971;1271;61218;-78
2022/09/21 08:17:15;;;;;;;10.30;5.50;;;;;;;12.37;83.34;101996.17;107774;1271;61124;-79
2022/09/21 08:19:42;;;;;;;8.90;4.80;;;;;;;12.46;82.40;101993.20;107763;1271;74775;-79
2022/09/21 08:22:11;;;;;;;9.40;5.10;;;;;;;12.55;81.76;101997.42;107674;1271;73683;-79
2022/09/21 08:24:40;;;;;;;11.10;5.40;;;;;;;12.68;81.85;101992.89;107936;1271;72768;-79
2022/09/21 08:27:07;;;;;;;13.30;6.20;;;;;;;12.81;80.99;101998.12;107900;1271;62044;-79
2022/09/21 08:29:35;;;;;;;9.70;4.60;;;;;;;12.93;80.19;101997.03;107648;1271;60514;-79
2022/09/21 08:32:02;;;;;;;8.20;4.70;;;;;;;13.03;79.63;101992.48;108155;1271;74825;-79
2022/09/21 08:34:29;;;;;;;8.50;3.80;;;;;;;13.15;78.86;101994.30;108433;1271;72647;-79
2022/09/21 08:36:56;;;;;;;9.30;4.40;;;;;;;13.19;77.63;101993.98;107675;1271;72799;-79
2022/09/21 08:39:23;;;;;;;10.50;4.40;;;;;;;13.28;78.09;101991.66;107712;1271;61908;-79
2022/09/21 08:42:08;;;;;;;8.60;4.10;;;;;;;13.38;77.14;101995.92;107927;1271;61669;-79
2022/09/21 08:44:42;;;;;;;8.60;4.50;;;;;;;13.50;76.77;101993.90;108230;1270;74326;-78
2022/09/21 08:47:16;;;;;;;10.30;4.60;;;;;;;13.62;77.52;101990.45;107676;1271;72684;-78
2022/09/21 08:49:49;;;;;;;8.90;3.80;;;;;;;13.74;76.67;101995.95;107812;1271;74112;-78
2022/09/21 08:52:20;;;;;;;12.00;4.30;;;;;;;13.80;74.69;101996.29;108232;1271;62237;-80
2022/09/21 08:54:50;;;;;;;9.20;3.90;;;;;;;13.85;74.15;101992.73;107579;1271;61150;-79
2022/09/21 08:57:17;;;;;;;8.20;3.50;;;;;;;13.96;74.96;101991.20;107823;1271;76704;-78
2022/09/21 08:59:47;;;;;;;10.20;3.70;;;;;;;14.04;73.78;101992.52;107560;1271;69925;-78
2022/09/21 09:02:51;;;;;;;9.70;3.50;;;;;;;14.13;74.01;101993.98;108208;1271;71825;-79
2022/09/21 09:05:43;;;;;;;11.10;3.80;;;;;;;14.26;73.24;101997.89;107519;1271;62613;-78
2022/09/21 09:08:19;;;;;;;10.40;3.60;;;;;;;14.38;72.30;102001.29;107694;1269;60406;-78
2022/09/21 09:11:05;;;;;;;8.10;3.30;;;;;;;14.51;72.37;102000.79;108384;1271;74872;-78
2022/09/21 09:14:21;;;;;;;7.90;3.30;;;;;;;14.61;71.33;101995.75;107680;1271;71376;-78
2022/09/21 09:17:08;;;;;;;9.40;3.60;;;;;;;14.78;71.24;101998.55;107875;1271;72265;-79
2022/09/21 09:19:49;;;;;;;10.50;4.00;;;;;;;14.94;71.55;101999.91;107619;1271;65938;-79
2022/09/21 09:22:31;;;;;;;9.60;4.10;;;;;;;15.10;70.17;102005.27;107736;1271;61329;-78
2022/09/21 09:25:03;;;;;;;9.70;3.60;;;;;;;15.17;69.24;102005.31;108038;1271;75083;-79
2022/09/21 09:27:35;;;;;;;9.40;4.20;;;;;;;15.24;69.19;101999.90;108188;1271;72403;-79
2022/09/21 09:30:16;;;;;;;8.20;3.50;;;;;;;15.32;68.77;101998.86;107948;1270;73258;-78
2022/09/21 09:32:43;;;;;;;11.30;4.80;;;;;;;15.38;68.43;102001.88;107528;1271;62290;-80
2022/09/21 09:35:32;;;;;;;9.60;4.10;;;;;;;15.47;67.95;102002.88;108099;1271;61754;-79
2022/09/21 09:38:10;;;;;;;8.00;3.10;;;;;;;15.62;67.86;102000.86;107961;1270;75821;-78
2022/09/21 09:41:18;;;;;;;13.60;4.10;;;;;;;15.73;66.55;102001.54;107622;1271;71187;-78
2022/09/21 09:44:11;;;;;;;8.10;3.30;;;;;;;15.79;65.67;102007.08;108038;1270;74240;-79
2022/09/21 09:46:56;;;;;;;8.30;2.90;;;;;;;15.90;66.17;102005.77;108050;1271;62410;-79
2022/09/21 09:49:57;;;;;;;9.80;2.20;;;;;;;16.08;66.38;102000.58;107873;1271;62524;-79
2022/09/21 09:52:24;;;;;;;8.20;2.20;;;;;;;16.18;63.23;102004.10;107836;1270;75005;-79
2022/09/21 09:54:53;;;;;;;7.10;2.20;;;;;;;16.20;62.85;102002.27;107637;1270;71427;-79
2022/09/21 09:57:28;;;;;;;8.20;2.40;;;;;;;16.25;62.78;102004.41;107885;1271;72516;-79
2022/09/21 10:00:08;;;;;;;8.10;2.00;;;;;;;16.37;63.37;102002.55;107983;1271;62937;-78
2022/09/21 10:02:46;;;;;;;5.50;1.60;;;;;;;16.50;62.03;101997.56;107885;1271;61433;-78
2022/09/21 10:05:31;;;;;;;6.90;2.10;;;;;;;16.50;60.17;101995.52;107955;1271;75670;-78
2022/09/21 10:07:58;;;;;;;7.80;1.80;;;;;;;16.50;60.03;101992.13;108005;1271;71365;-78
2022/09/21 10:10:28;;;;;;;8.00;3.00;;;;;;;16.56;59.63;101989.79;107344;1271;72945;-78
2022/09/21 10:13:08;;;;;;;8.30;1.70;;;;;;;16.64;59.29;101990.25;108052;1271;59750;-79
2022/09/21 10:15:41;;;;;;;8.60;1.90;;;;;;;16.81;60.51;101987.40;107920;1271;61077;-78
2022/09/21 10:18:24;;;;;;;11.80;1.70;;;;;;;17.01;58.93;101987.92;107829;1271;75099;-78
2022/09/21 10:21:00;;;;;;;6.30;2.00;;;;;;;17.06;55.96;101991.59;107765;1271;72530;-78
2022/09/21 10:23:28;;;;;;;10.10;2.10;;;;;;;16.94;54.82;101989.42;107926;1271;73349;-78
2022/09/21 10:26:21;;;;;;;8.00;2.00;;;;;;;16.90;55.80;101982.96;108006;1271;62408;-78
2022/09/21 10:28:58;;;;;;;7.20;1.70;;;;;;;17.00;56.46;101982.31;107606;1271;62425;-78
2022/09/21 10:31:29;;;;;;;6.70;1.60;;;;;;;17.19;57.95;101981.61;107790;1271;76041;-77
2022/09/21 10:34:10;;;;;;;6.80;1.60;;;;;;;17.37;57.44;101987.20;107798;1271;70412;-76
2022/09/21 10:36:37;;;;;;;4.80;1.60;;;;;;;17.56;55.97;101979.16;108064;1271;72141;-76
2022/09/21 10:39:25;;;;;;;6.60;1.70;;;;;;;17.60;52.01;101979.65;107707;1271;59711;-76
2022/09/21 10:42:05;;;;;;;5.00;1.40;;;;;;;17.63;52.94;101976.91;107634;1271;61095;-77
2022/09/21 10:44:39;;;;;;;5.60;1.50;;;;;;;17.62;49.71;101976.52;107619;1271;76075;-76
2022/09/21 10:47:28;;;;;;;7.00;1.50;;;;;;;17.62;49.62;101979.05;107928;1271;72897;-76
2022/09/21 10:49:57;;;;;;;2.90;1.10;;;;;;;17.73;49.94;101976.52;107758;1271;74430;-76
2022/09/21 10:52:40;;;;;;;9.30;1.50;;;;;;;17.80;49.56;101976.45;108101;1271;61476;-77
2022/09/21 10:55:20;;;;;;;7.80;2.30;;;;;;;17.60;48.99;101976.43;107922;1271;60329;-77
2022/09/21 10:57:49;;;;;;;6.80;1.70;;;;;;;17.66;50.07;101974.55;108013;1271;75053;-76
2022/09/21 11:00:25;;;;;;;8.20;1.40;;;;;;;17.83;49.73;101977.17;108053;1271;72583;-75
2022/09/21 11:02:53;;;;;;;6.60;1.20;;;;;;;17.98;49.19;101971.71;108015;1270;72507;-76
2022/09/21 11:05:37;;;;;;;5.00;0.90;;;;;;;17.93;47.36;101971.02;108133;1271;60958;-76
2022/09/21 11:08:14;;;;;;;6.30;1.40;;;;;;;17.96;47.12;101972.11;107609;1270;62085;-76
2022/09/21 11:11:00;;;;;;;5.40;1.40;;;;;;;18.08;48.01;101967.22;108169;1271;74960;-75
2022/09/21 11:13:35;;;;;;;6.10;1.20;;;;;;;18.30;48.23;101964.95;107776;1270;72424;-74
2022/09/21 11:16:21;;;;;;;4.80;1.50;;;;;;;18.42;46.81;101967.39;108015;1270;73251;-74
2022/09/21 11:19:12;;;;;;;5.10;1.50;;;;;;;18.65;47.30;101963.88;107760;1271;60567;-75
2022/09/21 11:21:43;;;;;;;3.00;0.90;;;;;;;18.88;46.27;101964.40;108111;1270;60326;-74
2022/09/21 11:24:22;;;;;;;3.90;0.90;;;;;;;18.88;42.93;101964.43;107646;1271;76277;-74
2022/09/21 11:27:23;;;;;;;5.20;1.20;;;;;;;18.75;43.80;101961.75;107701;1271;71682;-75
2022/09/21 11:30:06;;;;;;;7.40;1.70;;;;;;;18.60;43.85;101965.29;107470;1271;72989;-74
2022/09/21 11:32:54;;;;;;;5.50;1.10;;;;;;;18.34;43.78;101961.59;108011;1271;61339;-75
2022/09/21 11:35:40;;;;;;;5.50;1.20;;;;;;;18.16;45.00;101963.23;108002;1271;60405;-76
2022/09/21 11:38:58;;;;;;;7.60;2.10;;;;;;;17.96;45.36;101959.75;108217;1270;76544;-76
2022/09/21 11:41:55;;;;;;;3.90;1.00;;;;;;;17.96;46.35;101958.71;107647;1271;72393;-75
2022/09/21 11:44:37;;;;;;;6.50;1.20;;;;;;;17.99;46.64;101955.64;107501;1271;71881;-75
2022/09/21 11:47:16;;;;;;;4.00;1.00;;;;;;;18.20;46.63;101954.45;107995;1271;61159;-75
2022/09/21 11:50:03;;;;;;;5.50;1.30;;;;;;;18.63;44.46;101952.73;108142;1271;61428;-74
2022/09/21 11:53:11;;;;;;;2.50;0.80;;;;;;;19.18;44.00;101947.39;107261;1271;628692;-75